Time;durP1;ratioP1;P1;durP2;ratioP2;P2;SDS_P1;SDS_P2;PMS_P1;PMS_P2;Temp;Humidity;BMP_temperature;BMP_pressure;BME280_temperature;BME280_humidity;BME280_pressure;Samples;Min_cycle;Max_cycle;Signal;HPM_P1;HPM_P2
2021/09/12 00:03:29;;;;;;;;;;;15.60;99.90;;;14.30;100.00;95947.19;10518804;28;2070;-76
2021/09/12 00:08:32;;;;;;;;;;;15.50;99.90;;;14.21;100.00;95943.56;10519832;28;1999;-77
2021/09/12 00:13:35;;;;;;;;;;;15.40;99.90;;;14.12;100.00;95952.59;10518396;28;2059;-77
2021/09/12 00:18:41;;;;;;;;;;;15.30;99.90;;;14.12;100.00;95939.09;10513404;28;2075;-76
2021/09/12 00:23:43;;;;;;;;;;;15.20;99.90;;;14.03;100.00;95937.03;10516310;28;2143;-76
2021/09/12 00:28:46;;;;;;;;;;;15.20;99.90;;;14.03;100.00;95945.16;10508835;28;2059;-77
2021/09/12 00:33:49;;;;;;;;;;;15.10;99.90;;;14.04;100.00;95929.75;10513542;28;2118;-77
2021/09/12 00:38:52;;;;;;;;;;;15.10;99.90;;;14.05;100.00;95936.75;10517040;28;2157;-78
2021/09/12 00:43:55;;;;;;;;;;;15.20;99.90;;;13.98;100.00;95937.09;10510175;28;2071;-77
2021/09/12 00:48:58;;;;;;;;;;;15.10;99.90;;;13.98;100.00;95931.69;10511517;28;2380;-76
2021/09/12 00:54:00;;;;;;;;;;;15.10;99.90;;;13.95;100.00;95937.69;10515758;28;2140;-77
2021/09/12 00:59:03;;;;;;;;;;;15.10;99.90;;;13.94;100.00;95936.09;10505871;28;2089;-77
2021/09/12 01:04:06;;;;;;;;;;;15.10;99.90;;;13.93;100.00;95939.91;10513852;28;2087;-77
2021/09/12 01:09:09;;;;;;;;;;;15.00;99.90;;;13.98;100.00;95936.31;10522204;28;2130;-77
2021/09/12 01:14:16;;;;;;;;;;;15.00;99.90;;;14.08;100.00;95936.19;10510487;28;2162;-76
2021/09/12 01:19:25;;;;;;;;;;;15.10;99.90;;;14.02;100.00;95940.84;10524480;28;2242;-75
2021/09/12 01:24:43;;;;;;;;;;;15.10;99.90;;;14.00;100.00;95937.63;10528968;28;1614;-76
2021/09/12 01:30:05;;;;;;;;;;;15.10;99.90;;;13.94;100.00;95924.50;10511074;28;2125;-77
2021/09/12 01:35:08;;;;;;;;;;;15.10;99.90;;;13.93;100.00;95925.56;10510024;28;2094;-76
2021/09/12 01:40:11;;;;;;;;;;;15.10;99.90;;;13.91;100.00;95925.06;10509049;28;2047;-76
2021/09/12 01:45:14;;;;;;;;;;;15.00;99.90;;;13.91;100.00;95920.44;10514440;28;2238;-76
2021/09/12 01:50:17;;;;;;;;;;;14.90;99.90;;;13.86;100.00;95912.41;10513400;28;2202;-76
2021/09/12 01:55:20;;;;;;;;;;;15.00;99.90;;;13.82;100.00;95911.41;10509131;28;2007;-75
2021/09/12 02:00:22;;;;;;;;;;;14.90;99.90;;;13.82;100.00;95911.41;10515374;28;2020;-75
2021/09/12 02:05:25;;;;;;;;;;;14.90;99.90;;;13.84;100.00;95909.19;10514402;28;2040;-77
2021/09/12 02:10:29;;;;;;;;;;;14.90;99.90;;;13.82;100.00;95914.09;10519538;28;1844;-77
2021/09/12 02:15:32;;;;;;;;;;;14.90;99.90;;;13.82;100.00;95910.59;10519519;28;2034;-77
2021/09/12 02:20:35;;;;;;;;;;;14.90;99.90;;;13.90;100.00;95912.66;10520409;28;1809;-77
2021/09/12 02:25:37;;;;;;;;;;;15.00;99.90;;;13.78;100.00;95905.75;10521604;28;1981;-77
2021/09/12 02:30:41;;;;;;;;;;;14.90;99.90;;;13.82;100.00;95906.00;10527750;28;2051;-77
2021/09/12 02:35:44;;;;;;;;;;;14.90;99.90;;;13.79;100.00;95911.97;10512532;28;2066;-76
2021/09/12 02:40:47;;;;;;;;;;;14.90;99.90;;;13.76;100.00;95917.97;10528025;28;2124;-76
2021/09/12 02:45:50;;;;;;;;;;;14.90;99.90;;;13.78;100.00;95927.38;10516796;28;2047;-76
2021/09/12 02:50:53;;;;;;;;;;;14.90;99.90;;;13.79;100.00;95925.47;10521804;28;1794;-76
2021/09/12 02:55:56;;;;;;;;;;;14.90;99.90;;;13.78;100.00;95926.56;10517177;28;2055;-77
2021/09/12 03:00:58;;;;;;;;;;;14.90;99.90;;;13.72;100.00;95919.63;10514538;28;1988;-76
2021/09/12 03:06:02;;;;;;;;;;;14.80;99.90;;;13.69;100.00;95912.91;10524189;28;2038;-77
2021/09/12 03:11:04;;;;;;;;;;;14.80;99.90;;;13.69;100.00;95912.13;10524227;28;1909;-75
2021/09/12 03:16:07;;;;;;;;;;;14.80;99.90;;;13.73;100.00;95913.91;10521778;28;2020;-76
2021/09/12 03:21:10;;;;;;;;;;;14.80;99.90;;;13.79;100.00;95917.38;10516263;28;2033;-76
2021/09/12 03:26:13;;;;;;;;;;;14.80;99.90;;;13.77;100.00;95917.66;10518773;28;1964;-76
2021/09/12 03:31:16;;;;;;;;;;;14.80;99.90;;;13.80;100.00;95908.16;10520013;28;1984;-76
2021/09/12 03:36:19;;;;;;;;;;;14.80;99.90;;;13.91;100.00;95911.53;10530819;28;1894;-76
2021/09/12 03:41:22;;;;;;;;;;;14.80;99.90;;;14.05;100.00;95905.13;10539486;28;2059;-76
2021/09/12 03:46:25;;;;;;;;;;;15.00;99.90;;;13.97;100.00;95886.84;10541573;28;1821;-74
2021/09/12 03:51:28;;;;;;;;;;;15.00;99.90;;;13.95;100.00;95899.88;10541146;28;2054;-75
2021/09/12 03:56:30;;;;;;;;;;;15.00;99.90;;;14.04;100.00;95903.50;10528715;28;2139;-76
2021/09/12 04:01:33;;;;;;;;;;;15.00;99.90;;;14.14;100.00;95902.56;10530505;28;1798;-76
2021/09/12 04:06:36;;;;;;;;;;;15.00;99.90;;;14.23;100.00;95906.22;10525571;28;2065;-75
2021/09/12 04:11:39;;;;;;;;;;;15.10;99.90;;;14.47;100.00;95899.94;10530005;28;1842;-76
2021/09/12 04:16:43;;;;;;;;;;;15.30;99.90;;;14.48;100.00;95902.34;10527158;28;2027;-75
2021/09/12 04:21:46;;;;;;;;;;;15.40;99.90;;;14.59;100.00;95892.16;10525207;28;2039;-74
2021/09/12 04:26:49;;;;;;;;;;;15.50;99.90;;;14.53;100.00;95894.16;10533161;28;2011;-76
2021/09/12 04:31:52;;;;;;;;;;;15.50;99.90;;;14.46;100.00;95904.53;10532775;28;1988;-77
2021/09/12 04:36:55;;;;;;;;;;;15.50;99.90;;;14.34;100.00;95906.88;10538132;28;1965;-75
2021/09/12 04:41:58;;;;;;;;;;;15.40;99.90;;;14.17;100.00;95906.59;10532323;28;1900;-76
2021/09/12 04:47:01;;;;;;;;;;;15.30;99.90;;;14.15;100.00;95908.78;10530304;28;2034;-74
2021/09/12 04:52:03;;;;;;;;;;;15.20;99.90;;;14.14;100.00;95909.88;10518478;28;2054;-76
2021/09/12 04:57:06;;;;;;;;;;;15.10;99.90;;;14.05;100.00;95905.13;10509187;28;2059;-76
2021/09/12 05:02:09;;;;;;;;;;;15.10;99.90;;;14.19;100.00;95910.63;10515789;28;1786;-76
2021/09/12 05:07:13;;;;;;;;;;;15.10;99.90;;;14.31;100.00;95907.44;10513909;28;1790;-76
2021/09/12 05:12:16;;;;;;;;;;;15.30;99.90;;;14.38;100.00;95917.88;10527700;28;2071;-77
2021/09/12 05:17:18;;;;;;;;;;;15.30;99.90;;;14.41;100.00;95901.88;10514960;28;2004;-76
2021/09/12 05:22:21;;;;;;;;;;;15.30;99.90;;;14.40;100.00;95905.69;10502055;28;1995;-77
2021/09/12 05:27:25;;;;;;;;;;;15.30;99.90;;;14.30;100.00;95919.34;10512798;28;1878;-76
2021/09/12 05:32:27;;;;;;;;;;;15.30;99.90;;;14.41;100.00;95918.13;10518929;28;2051;-77
2021/09/12 05:37:30;;;;;;;;;;;15.30;99.90;;;14.73;100.00;95909.25;10507271;28;2059;-76
2021/09/12 05:42:33;;;;;;;;;;;15.50;99.90;;;15.04;100.00;95904.09;10520250;28;2090;-76
2021/09/12 05:47:36;;;;;;;;;;;15.70;99.90;;;15.24;100.00;95908.34;10506938;28;1833;-77
2021/09/12 05:52:39;;;;;;;;;;;15.90;99.90;;;15.34;100.00;95918.19;10538428;28;2110;-75
2021/09/12 05:57:42;;;;;;;;;;;16.00;99.90;;;15.73;100.00;95914.19;10523947;28;1909;-77
2021/09/12 06:02:44;;;;;;;;;;;16.20;99.90;;;16.06;100.00;95918.34;10531635;28;2122;-76
2021/09/12 06:07:51;;;;;;;;;;;16.50;99.90;;;16.26;100.00;95910.88;10527214;28;1861;-76
2021/09/12 06:12:54;;;;;;;;;;;16.80;99.90;;;16.55;100.00;95919.41;10520739;28;1992;-76
2021/09/12 06:17:56;;;;;;;;;;;17.00;99.90;;;17.02;98.97;95922.63;10520366;28;1975;-75
2021/09/12 06:22:59;;;;;;;;;;;17.40;99.90;;;17.06;98.70;95917.38;10516573;28;2067;-75
2021/09/12 06:28:02;;;;;;;;;;;17.60;99.90;;;17.12;98.67;95930.53;10522755;28;1841;-76
2021/09/12 06:33:05;;;;;;;;;;;17.70;99.90;;;17.18;99.07;95925.75;10518079;28;2086;-76
2021/09/12 06:38:08;;;;;;;;;;;17.80;99.90;;;17.44;97.13;95923.97;10525877;28;1957;-75
2021/09/12 06:43:11;;;;;;;;;;;17.90;99.90;;;17.59;96.21;95922.72;10522195;28;2027;-76
2021/09/12 06:48:14;;;;;;;;;;;18.00;99.90;;;17.56;96.26;95926.09;10517278;28;1786;-75
2021/09/12 06:53:17;;;;;;;;;;;18.20;99.90;;;18.11;93.48;95914.72;10523643;28;2129;-77
2021/09/12 06:58:20;;;;;;;;;;;18.50;99.90;;;17.70;95.29;95925.97;10518445;28;2090;-78
2021/09/12 07:03:23;;;;;;;;;;;18.70;99.90;;;18.18;94.46;95923.22;10524051;28;2031;-77
2021/09/12 07:08:26;;;;;;;;;;;18.60;99.90;;;18.98;88.82;95920.19;10516004;28;2031;-74
2021/09/12 07:13:29;;;;;;;;;;;19.20;99.90;;;18.84;89.48;95921.19;10524522;28;1833;-75
2021/09/12 07:18:32;;;;;;;;;;;19.60;99.90;;;18.66;89.99;95938.63;10517660;28;1989;-75
2021/09/12 07:23:35;;;;;;;;;;;19.50;99.90;;;18.35;91.76;95936.06;10518839;28;2027;-74
2021/09/12 07:28:38;;;;;;;;;;;19.40;99.90;;;18.61;90.60;95925.97;10509622;28;1826;-75
2021/09/12 07:33:41;;;;;;;;;;;19.30;99.90;;;19.02;87.99;95937.47;10519219;28;2007;-76
2021/09/12 07:38:44;;;;;;;;;;;19.60;99.90;;;18.75;89.20;95942.16;10518371;28;2090;-74
2021/09/12 07:43:47;;;;;;;;;;;19.60;99.90;;;19.30;86.68;95937.91;10517676;28;2056;-74
2021/09/12 07:48:50;;;;;;;;;;;19.70;99.90;;;19.73;85.09;95929.59;10523967;28;1849;-74
2021/09/12 07:53:53;;;;;;;;;;;20.10;99.90;;;19.58;84.44;95928.22;10522026;28;1991;-74
2021/09/12 07:58:56;;;;;;;;;;;20.30;99.90;;;19.33;85.36;95932.59;10521525;28;1970;-73
2021/09/12 08:03:59;;;;;;;;;;;20.30;99.90;;;19.71;83.85;95924.47;10519885;28;1988;-74
2021/09/12 08:09:02;;;;;;;;;;;20.40;99.90;;;19.86;80.88;95930.50;10515251;28;1857;-74
2021/09/12 08:14:05;;;;;;;;;;;20.50;99.90;;;20.03;80.66;95937.78;10520110;28;2025;-72
2021/09/12 08:19:07;;;;;;;;;;;20.60;99.90;;;20.06;80.55;95937.13;10529610;28;2333;-74
2021/09/12 08:24:15;;;;;;;;;;;20.70;99.90;;;20.02;80.46;95952.56;10521274;28;1999;-74
2021/09/12 08:29:18;;;;;;;;;;;20.90;99.90;;;20.74;74.18;95945.97;10516825;28;2018;-74
2021/09/12 08:34:23;;;;;;;;;;;21.10;99.90;;;20.03;78.69;95943.22;10521477;28;1877;-74
2021/09/12 08:39:26;;;;;;;;;;;21.00;99.90;;;20.53;76.35;95940.53;10521206;28;1988;-75
2021/09/12 08:44:32;;;;;;;;;;;21.10;99.90;;;21.39;72.01;95936.22;10518740;28;2114;-75
2021/09/12 08:49:34;;;;;;;;;;;21.60;99.90;;;21.73;70.68;95932.28;10512367;28;1888;-75
2021/09/12 08:54:37;;;;;;;;;;;22.00;99.90;;;21.70;70.73;95932.97;10514249;28;2094;-75
2021/09/12 08:59:40;;;;;;;;;;;22.20;99.90;;;21.49;69.99;95938.50;10507169;28;2035;-75
2021/09/12 09:04:43;;;;;;;;;;;22.20;99.90;;;21.93;69.79;95940.72;10516741;28;1813;-75
2021/09/12 09:09:46;;;;;;;;;;;22.40;99.90;;;22.22;67.93;95936.97;10511677;28;2131;-74
2021/09/12 09:14:49;;;;;;;;;;;22.60;99.90;;;21.59;70.22;95932.59;10519890;28;1652;-74
2021/09/12 09:19:52;;;;;;;;;;;22.40;99.90;;;22.45;66.46;95924.34;10522769;28;1917;-76
2021/09/12 09:24:55;;;;;;;;;;;22.50;99.90;;;23.39;62.58;95926.63;10508289;28;1976;-74
2021/09/12 09:29:58;;;;;;;;;;;23.30;99.90;;;23.64;59.31;95919.06;10521218;28;2043;-74
2021/09/12 09:35:01;;;;;;;;;;;23.90;99.90;;;23.68;58.47;95914.47;10514227;28;2039;-74
2021/09/12 09:40:04;;;;;;;;;;;24.30;99.90;;;24.39;57.76;95909.09;10524342;28;2019;-75
2021/09/12 09:45:07;;;;;;;;;;;24.30;99.90;;;22.55;62.98;95918.41;10520859;28;1858;-73
2021/09/12 09:50:10;;;;;;;;;;;24.00;99.90;;;22.58;63.05;95916.91;10519598;28;2518;-74
2021/09/12 09:55:14;;;;;;;;;;;23.50;99.90;;;22.08;62.98;95908.00;10511096;28;1708;-74
2021/09/12 10:00:17;;;;;;;;;;;23.10;99.90;;;22.52;61.14;95913.63;10514317;28;2059;-74
2021/09/12 10:05:20;;;;;;;;;;;23.20;99.90;;;22.44;61.29;95909.06;10512465;28;2032;-74
2021/09/12 10:10:23;;;;;;;;;;;23.20;99.90;;;23.28;59.99;95902.81;10525850;28;2162;-73
2021/09/12 10:15:26;;;;;;;;;;;23.70;99.90;;;23.63;59.47;95890.03;10517762;28;2046;-74
2021/09/12 10:20:29;;;;;;;;;;;24.10;99.90;;;23.15;60.47;95891.91;10526016;28;2075;-75
2021/09/12 10:25:31;;;;;;;;;;;24.00;99.90;;;23.27;60.50;95893.00;10511902;28;1963;-73
2021/09/12 10:30:37;;;;;;;;;;;23.90;99.90;;;23.04;60.86;95879.88;10517760;28;2042;-74
2021/09/12 10:35:40;;;;;;;;;;;23.80;99.90;;;23.20;57.72;95877.94;10521113;28;1977;-74
2021/09/12 10:40:43;;;;;;;;;;;23.80;99.90;;;23.44;58.15;95873.47;10513763;28;2087;-75
2021/09/12 10:45:45;;;;;;;;;;;23.80;99.90;;;23.90;56.22;95862.81;10524011;28;1791;-75
2021/09/12 10:50:48;;;;;;;;;;;24.30;99.90;;;23.93;56.19;95862.13;10525718;28;2071;-75
2021/09/12 10:55:59;;;;;;;;;;;24.40;99.90;;;23.27;58.49;95866.38;10518045;28;2023;-74
2021/09/12 11:01:02;;;;;;;;;;;24.40;99.90;;;23.30;58.18;95865.69;10518911;28;2035;-75
2021/09/12 11:06:06;;;;;;;;;;;24.10;99.90;;;23.00;60.04;95867.22;10520608;28;2332;-75
2021/09/12 11:11:08;;;;;;;;;;;23.90;99.90;;;22.32;62.78;95870.75;10527781;28;1929;-75
2021/09/12 11:16:11;;;;;;;;;;;23.50;99.90;;;22.84;60.73;95867.13;10512826;28;2039;-75
2021/09/12 11:21:14;;;;;;;;;;;23.40;99.90;;;22.30;62.36;95856.63;10523441;28;2098;-74
2021/09/12 11:26:17;;;;;;;;;;;23.30;99.90;;;21.95;63.85;95857.13;10517900;28;2090;-74
2021/09/12 11:31:20;;;;;;;;;;;23.00;99.90;;;22.34;61.11;95860.28;10514181;28;2015;-75
2021/09/12 11:36:23;;;;;;;;;;;23.10;99.90;;;22.78;60.64;95849.38;10518996;28;2059;-74
2021/09/12 11:41:27;;;;;;;;;;;23.30;99.90;;;21.99;62.11;95841.59;10521313;28;2086;-74
2021/09/12 11:46:30;;;;;;;;;;;23.30;99.90;;;21.97;61.86;95837.63;10530704;28;2062;-74
2021/09/12 11:51:33;;;;;;;;;;;23.10;99.90;;;22.72;58.70;95824.19;10509097;28;1809;-74
2021/09/12 11:56:36;;;;;;;;;;;23.20;99.90;;;22.77;56.07;95825.84;10517323;28;2157;-74
2021/09/12 12:01:39;;;;;;;;;;;23.60;99.90;;;23.51;54.52;95810.53;10527794;28;2082;-75
2021/09/12 12:06:42;;;;;;;;;;;23.90;99.90;;;24.20;52.41;95817.22;10511683;28;2114;-74
2021/09/12 12:11:45;;;;;;;;;;;24.30;99.90;;;24.08;53.21;95806.38;10518374;28;2003;-75
2021/09/12 12:16:48;;;;;;;;;;;24.60;99.90;;;24.11;54.63;95808.41;10521889;28;1940;-75
2021/09/12 12:21:51;;;;;;;;;;;25.00;99.90;;;23.77;55.52;95801.75;10518734;28;2102;-75
2021/09/12 12:26:54;;;;;;;;;;;24.90;99.90;;;23.23;57.04;95804.38;10512684;28;2020;-74
2021/09/12 12:31:57;;;;;;;;;;;24.40;99.90;;;22.96;58.45;95795.84;10517777;28;1861;-74
2021/09/12 12:36:59;;;;;;;;;;;24.00;99.90;;;22.96;57.14;95790.34;10515872;28;2027;-74
2021/09/12 12:42:02;;;;;;;;;;;23.80;99.90;;;22.99;57.79;95786.94;10524421;28;2031;-75
2021/09/12 12:47:05;;;;;;;;;;;23.90;99.90;;;23.38;57.05;95778.88;10517077;28;2012;-75
2021/09/12 12:52:08;;;;;;;;;;;24.00;99.90;;;23.34;55.01;95777.97;10519153;28;2043;-75
2021/09/12 12:57:13;;;;;;;;;;;24.10;99.90;;;23.52;54.91;95767.44;10513526;28;2059;-75
2021/09/12 13:02:16;;;;;;;;;;;24.30;99.90;;;22.71;55.48;95765.00;10520647;28;2156;-76
2021/09/12 13:07:19;;;;;;;;;;;24.00;99.90;;;23.27;53.35;95756.66;10521391;28;2090;-75
2021/09/12 13:12:22;;;;;;;;;;;23.90;99.90;;;23.29;53.16;95742.63;10510992;28;2012;-74
2021/09/12 13:17:27;;;;;;;;;;;24.00;99.90;;;23.71;52.49;95742.81;10519988;28;2078;-74
2021/09/12 13:22:30;;;;;;;;;;;24.30;99.90;;;23.31;54.63;95741.09;10512993;28;1810;-73
2021/09/12 13:27:33;;;;;;;;;;;24.30;99.90;;;22.87;56.79;95743.94;10507351;28;2019;-74
2021/09/12 13:32:36;;;;;;;;;;;24.00;99.90;;;22.61;57.33;95743.63;10510529;28;2098;-74
2021/09/12 13:37:39;;;;;;;;;;;23.60;99.90;;;22.52;57.80;95737.50;10523102;28;2039;-75
2021/09/12 13:42:42;;;;;;;;;;;23.40;99.90;;;22.42;57.07;95733.34;10512447;28;2094;-74
2021/09/12 13:47:45;;;;;;;;;;;23.30;99.90;;;22.67;56.49;95737.53;10514662;28;1901;-75
2021/09/12 13:52:48;;;;;;;;;;;23.40;99.90;;;23.16;52.28;95725.47;10518493;28;2031;-74
2021/09/12 13:57:51;;;;;;;;;;;23.70;99.90;;;23.79;51.70;95721.78;10511346;28;2126;-75
2021/09/12 14:02:54;;;;;;;;;;;24.10;99.90;;;23.67;52.82;95717.25;10520244;28;2008;-77
2021/09/12 14:07:58;;;;;;;;;;;24.50;99.90;;;23.64;53.94;95716.00;10521922;28;1908;-75
2021/09/12 14:13:01;;;;;;;;;;;24.40;99.90;;;23.77;53.42;95707.66;10528326;28;1807;-75
2021/09/12 14:18:04;;;;;;;;;;;24.50;99.90;;;23.93;53.02;95709.19;10525764;28;2083;-74
2021/09/12 14:23:09;;;;;;;;;;;24.50;99.90;;;23.04;54.84;95709.91;10516119;28;2042;-75
2021/09/12 14:28:11;;;;;;;;;;;24.30;99.90;;;23.26;54.48;95708.47;10511806;28;2039;-74
2021/09/12 14:33:14;;;;;;;;;;;24.10;99.90;;;23.13;53.84;95702.28;10518835;28;2035;-75
2021/09/12 14:38:17;;;;;;;;;;;24.10;99.90;;;22.94;55.13;95704.97;10520295;28;2090;-75
2021/09/12 14:43:20;;;;;;;;;;;24.00;99.90;;;23.42;54.50;95694.72;10520006;28;2043;-75
2021/09/12 14:48:23;;;;;;;;;;;24.20;99.90;;;23.31;53.86;95690.94;10522119;28;2083;-75
2021/09/12 14:53:27;;;;;;;;;;;24.30;99.90;;;22.95;55.43;95684.63;10519108;28;2054;-75
2021/09/12 14:58:30;;;;;;;;;;;24.00;99.90;;;22.72;56.27;95692.66;10522226;28;2051;-76
2021/09/12 15:03:33;;;;;;;;;;;23.80;99.90;;;22.59;56.13;95697.41;10525532;28;2146;-79
2021/09/12 15:08:36;;;;;;;;;;;23.60;99.90;;;22.54;56.58;95692.19;10534062;28;2106;-79
2021/09/12 15:13:42;;;;;;;;;;;23.40;99.90;;;22.52;57.88;95694.50;10522739;28;2023;-80
2021/09/12 15:18:44;;;;;;;;;;;23.40;99.90;;;22.12;58.74;95687.16;10525534;28;2071;-77
2021/09/12 15:23:47;;;;;;;;;;;23.20;99.90;;;22.31;58.87;95688.44;10514001;28;2008;-77
2021/09/12 15:28:50;;;;;;;;;;;23.20;99.90;;;22.11;58.15;95682.84;10528801;28;2075;-77
2021/09/12 15:33:53;;;;;;;;;;;23.10;99.90;;;22.19;59.07;95691.25;10531252;28;2051;-78
2021/09/12 15:38:56;;;;;;;;;;;23.10;99.90;;;22.26;58.38;95685.94;10524542;28;2130;-78
2021/09/12 15:43:59;;;;;;;;;;;23.00;99.90;;;22.33;58.94;95689.69;10530501;28;2023;-80
2021/09/12 15:49:02;;;;;;;;;;;23.10;99.90;;;22.12;58.24;95678.16;10543659;28;1864;-77
2021/09/12 15:54:05;;;;;;;;;;;23.10;99.90;;;22.02;58.72;95684.13;10545150;28;1889;-78
2021/09/12 15:59:08;;;;;;;;;;;23.00;99.90;;;22.02;58.82;95690.41;10557333;28;2022;-77
2021/09/12 16:04:11;;;;;;;;;;;23.00;99.90;;;22.07;59.35;95690.13;10527564;28;2058;-78
2021/09/12 16:09:13;;;;;;;;;;;23.00;99.90;;;22.05;61.71;95683.41;10525793;28;2014;-78
2021/09/12 16:14:16;;;;;;;;;;;22.90;99.90;;;21.80;61.80;95682.72;10519049;28;2026;-78
2021/09/12 16:19:19;;;;;;;;;;;22.80;99.90;;;21.64;62.01;95676.41;10502208;28;2220;-79
2021/09/12 16:24:22;;;;;;;;;;;22.70;99.90;;;21.49;63.07;95675.97;10518926;28;2127;-80
2021/09/12 16:29:25;;;;;;;;;;;22.50;99.90;;;21.37;62.37;95684.19;10522982;28;2066;-80
2021/09/12 16:34:28;;;;;;;;;;;22.40;99.90;;;21.20;63.80;95687.97;10514845;28;2288;-79
2021/09/12 16:39:31;;;;;;;;;;;22.20;99.90;;;21.12;64.34;95683.41;10517424;28;2063;-80
2021/09/12 16:44:38;;;;;;;;;;;22.10;99.90;;;21.08;63.99;95682.50;10519487;28;2057;-79
2021/09/12 16:49:40;;;;;;;;;;;22.00;99.90;;;21.04;64.63;95687.06;10522987;28;1866;-79
2021/09/12 16:54:44;;;;;;;;;;;22.00;99.90;;;20.96;64.58;95685.25;10521724;28;2142;-78
2021/09/12 16:59:47;;;;;;;;;;;22.00;99.90;;;20.92;66.06;95690.56;10541945;28;1984;-79
2021/09/12 17:04:49;;;;;;;;;;;21.90;99.90;;;20.84;65.64;95688.75;10550038;28;2043;-79
2021/09/12 17:09:53;;;;;;;;;;;21.80;99.90;;;20.75;66.29;95696.28;10532563;28;1920;-79
2021/09/12 17:14:58;;;;;;;;;;;21.70;99.90;;;20.69;66.95;95692.19;10538090;28;2071;-78
2021/09/12 17:20:01;;;;;;;;;;;21.70;99.90;;;20.63;67.93;95694.34;10524337;28;2101;-79
2021/09/12 17:25:03;;;;;;;;;;;21.70;99.90;;;20.43;68.09;95700.66;10529991;28;1774;-80
2021/09/12 17:30:06;;;;;;;;;;;21.50;99.90;;;20.37;69.58;95694.59;10527564;28;1900;-78
2021/09/12 17:35:09;;;;;;;;;;;21.40;99.90;;;20.15;70.83;95695.78;10520321;28;2082;-79
2021/09/12 17:40:14;;;;;;;;;;;21.30;99.90;;;19.94;71.19;95690.38;10526354;28;2008;-79
2021/09/12 17:45:21;;;;;;;;;;;21.10;99.90;;;19.72;71.97;95698.91;10549241;28;1661;-78
2021/09/12 17:50:23;;;;;;;;;;;20.90;99.90;;;19.61;73.61;95700.44;10543067;28;2063;-78
2021/09/12 17:55:26;;;;;;;;;;;20.70;99.90;;;19.48;74.86;95704.22;10545886;28;1912;-78
2021/09/12 18:00:29;;;;;;;;;;;20.60;99.90;;;19.27;76.04;95710.41;10537797;28;2127;-78
2021/09/12 18:05:32;;;;;;;;;;;20.50;99.90;;;19.14;77.20;95716.91;10566806;28;1953;-76
2021/09/12 18:10:35;;;;;;;;;;;20.30;99.90;;;19.17;78.20;95727.16;10570111;28;2109;-76
2021/09/12 18:15:38;;;;;;;;;;;20.30;99.90;;;19.07;79.37;95732.97;10567790;28;1924;-78
2021/09/12 18:20:41;;;;;;;;;;;20.20;99.90;;;19.05;79.90;95740.69;10559878;28;2079;-78
2021/09/12 18:25:46;;;;;;;;;;;20.10;99.90;;;19.03;79.92;95745.69;10556928;28;1975;-79
2021/09/12 18:30:49;;;;;;;;;;;20.10;99.90;;;19.04;80.61;95756.25;10566771;28;1892;-80
2021/09/12 18:35:52;;;;;;;;;;;20.10;99.90;;;19.17;80.32;95759.88;10571264;28;1961;-79
2021/09/12 18:40:55;;;;;;;;;;;20.10;99.90;;;19.14;80.61;95757.78;10567147;28;2095;-79
2021/09/12 18:45:58;;;;;;;;;;;20.20;99.90;;;19.24;80.69;95765.59;10561989;28;1746;-79
2021/09/12 18:51:01;;;;;;;;;;;20.20;99.90;;;19.16;79.58;95769.19;10555115;28;2098;-79
2021/09/12 18:56:04;;;;;;;;;;;20.30;99.90;;;18.87;82.39;95768.00;10553804;28;2015;-78
2021/09/12 19:01:07;;;;;;;;;;;20.10;99.90;;;18.71;84.48;95772.41;10574156;28;1999;-77
2021/09/12 19:06:10;;;;;;;;;;;19.90;99.90;;;18.56;86.22;95772.88;10588064;28;1876;-77
2021/09/12 19:11:13;;;;;;;;;;;19.70;99.90;;;18.45;87.30;95785.22;10579142;28;2105;-77
2021/09/12 19:16:18;;;;;;;;;;;19.50;99.90;;;18.63;86.57;95786.78;10585501;28;1779;-77
2021/09/12 19:21:21;;;;;;;;;;;19.60;99.90;;;18.70;85.94;95794.50;10563811;28;1902;-79
2021/09/12 19:26:24;;;;;;;;;;;19.70;99.90;;;18.70;86.34;95799.94;10563967;28;2113;-79
2021/09/12 19:31:28;;;;;;;;;;;19.50;99.90;;;18.39;88.38;95800.94;10533201;28;2028;-74
2021/09/12 19:36:31;;;;;;;;;;;19.50;99.90;;;18.41;88.16;95793.25;10518769;28;2228;-76
2021/09/12 19:41:34;;;;;;;;;;;19.40;99.90;;;18.47;87.82;95791.97;10516919;28;2058;-75
2021/09/12 19:46:37;;;;;;;;;;;19.40;99.90;;;18.24;88.74;95796.78;10519747;28;2046;-76
2021/09/12 19:51:40;;;;;;;;;;;19.30;99.90;;;18.35;88.28;95803.50;10514596;28;2106;-75
2021/09/12 19:56:43;;;;;;;;;;;19.30;99.90;;;18.38;88.39;95804.78;10510425;28;1987;-75
2021/09/12 20:01:45;;;;;;;;;;;19.40;99.90;;;18.44;88.11;95798.03;10514665;28;1936;-75
2021/09/12 20:06:49;;;;;;;;;;;19.40;99.90;;;18.40;87.98;95804.47;10522055;28;2041;-75
2021/09/12 20:11:52;;;;;;;;;;;19.30;99.90;;;18.40;87.54;95810.72;10521150;28;2051;-75
2021/09/12 20:16:54;;;;;;;;;;;19.40;99.90;;;18.25;87.98;95806.53;10513268;28;2018;-75
2021/09/12 20:21:58;;;;;;;;;;;19.30;99.90;;;18.10;90.74;95815.22;10522018;28;2020;-75
2021/09/12 20:27:01;;;;;;;;;;;19.20;99.90;;;18.04;90.09;95819.19;10511707;28;1980;-75
2021/09/12 20:32:04;;;;;;;;;;;19.10;99.90;;;17.79;90.81;95827.03;10506961;28;2034;-75
2021/09/12 20:37:07;;;;;;;;;;;18.90;99.90;;;17.46;92.00;95828.53;10514218;28;2040;-75
2021/09/12 20:42:10;;;;;;;;;;;18.70;99.90;;;17.34;92.44;95825.63;10518884;28;2030;-75
2021/09/12 20:47:13;;;;;;;;;;;18.50;99.90;;;17.36;93.21;95824.16;10516802;28;2074;-75
2021/09/12 20:52:15;;;;;;;;;;;18.40;99.90;;;17.49;91.79;95828.69;10517001;28;1923;-74
2021/09/12 20:57:18;;;;;;;;;;;18.40;99.90;;;17.59;91.03;95838.47;10522361;28;2085;-75
2021/09/12 21:02:21;;;;;;;;;;;18.50;99.90;;;17.51;91.84;95839.25;10513865;28;2078;-76
2021/09/12 21:07:25;;;;;;;;;;;18.50;99.90;;;17.37;91.52;95827.69;10508886;28;2198;-75
2021/09/12 21:12:27;;;;;;;;;;;18.50;99.90;;;17.41;92.11;95826.75;10524703;28;2019;-74
2021/09/12 21:17:30;;;;;;;;;;;18.40;99.90;;;17.54;91.39;95833.97;10517595;28;1826;-74
2021/09/12 21:22:33;;;;;;;;;;;18.40;99.90;;;17.63;90.45;95825.88;10507258;28;2054;-74
2021/09/12 21:27:36;;;;;;;;;;;18.50;99.90;;;17.68;90.71;95836.56;10529319;28;2156;-75
2021/09/12 21:32:39;;;;;;;;;;;18.60;99.90;;;17.70;90.26;95833.53;10522394;28;2019;-74
2021/09/12 21:37:42;;;;;;;;;;;18.60;99.90;;;17.65;90.58;95836.41;10522623;28;1857;-75
2021/09/12 21:42:45;;;;;;;;;;;18.60;99.90;;;17.64;91.10;95841.06;10528720;28;2047;-75
2021/09/12 21:47:48;;;;;;;;;;;18.60;99.90;;;17.77;89.59;95845.56;10526822;28;2118;-75
2021/09/12 21:52:51;;;;;;;;;;;18.60;99.90;;;17.59;90.05;95835.75;10512599;28;2077;-75
2021/09/12 21:57:54;;;;;;;;;;;18.70;99.90;;;17.61;90.72;95836.22;10528713;28;1929;-75
2021/09/12 22:02:57;;;;;;;;;;;18.60;99.90;;;17.55;90.69;95827.41;10525191;28;2034;-74
2021/09/12 22:08:00;;;;;;;;;;;18.50;99.90;;;17.43;90.74;95829.16;10520155;28;2137;-74
2021/09/12 22:13:03;;;;;;;;;;;18.50;99.90;;;17.42;91.77;95832.97;10529314;28;1916;-75
2021/09/12 22:18:05;;;;;;;;;;;18.40;99.90;;;17.41;91.62;95834.09;10532139;28;2008;-75
2021/09/12 22:23:10;;;;;;;;;;;18.40;99.90;;;17.32;92.68;95831.38;10526188;28;2063;-75
2021/09/12 22:28:15;;;;;;;;;;;18.30;99.90;;;17.51;91.56;95834.63;10523346;28;2031;-74
2021/09/12 22:33:18;;;;;;;;;;;18.40;99.90;;;17.51;91.93;95833.81;10521547;28;2135;-74
2021/09/12 22:38:21;;;;;;;;;;;18.40;99.90;;;17.60;91.23;95837.34;10522589;28;2232;-74
2021/09/12 22:43:24;;;;;;;;;;;18.40;99.90;;;17.73;89.79;95832.94;10518501;28;2073;-74
2021/09/12 22:48:26;;;;;;;;;;;18.50;99.90;;;17.84;89.25;95831.50;10522404;28;2165;-75
2021/09/12 22:53:29;;;;;;;;;;;18.70;99.90;;;17.81;89.19;95835.69;10523918;28;2043;-75
2021/09/12 22:58:32;;;;;;;;;;;18.70;99.90;;;17.73;89.34;95828.28;10524995;28;2050;-74
2021/09/12 23:03:35;;;;;;;;;;;18.70;99.90;;;17.66;89.73;95832.56;10523223;28;2047;-74
2021/09/12 23:08:38;;;;;;;;;;;18.60;99.90;;;17.48;90.60;95829.00;10513365;28;2079;-74